Site contains unofficial IBTrACS data. Visit the IBTrACS Website to access archived data.

1893 NOT_NAMED (1893268N14128)


IBTrACS version v04r00. Visit IBTrACS website for data access.
Please direct all questions to the IBTrACS Q and A forum

Storm track - Intensity - Wind Radii - Intensity Data - Source Data - All data

Summary Information

Storm ID 1893268N14128
Start Sep 24 16Z
Landfall Sep 26 09Z, Sep 29 00Z
End Sep 29 04Z
ATCF IDs
Track status Best track data.

Storm track plot

Map of storm track

Intensity plots

No Intensity information for this storm


Radial wind information

No radial wind information for this storm


Position and Intensity Table

BASIN ISO_TIME_________ NATURE LAT LON
degrees north degrees east
WP 1893-09-24 16:00:00 NR 14.30 127.90
WP 18:00:00 NR 14.36 127.72
WP 21:00:00 NR 14.45 127.44
WP 1893-09-25 00:00:00 NR 14.54 127.12
WP 03:00:00 NR 14.66 126.74
WP 04:00:00 NR 14.70 126.60
WP 06:00:00 NR 14.79 126.28
WP 09:00:00 NR 14.94 125.76
WP 12:00:00 NR 15.10 125.20
WP 15:00:00 NR 15.25 124.67
WP 16:00:00 NR 15.30 124.50
WP 18:00:00 NR 15.38 124.21
WP 21:00:00 NR 15.50 123.81
WP 1893-09-26 00:00:00 NR 15.62 123.43
WP 03:00:00 NR 15.75 123.04
WP 04:00:00 NR 15.80 122.90
WP 06:00:00 NR 15.91 122.59
WP 09:00:00 NR 16.08 122.11
WP 12:00:00 NR 16.26 121.62
WP 15:00:00 NR 16.44 121.15
WP 16:00:00 NR 16.50 121.00
WP 18:00:00 NR 16.60 120.74
WP 21:00:00 NR 16.75 120.37
WP 1893-09-27 00:00:00 NR 16.92 120.02
WP 03:00:00 NR 17.12 119.64
WP 04:00:00 NR 17.20 119.50
WP 06:00:00 NR 17.40 119.19
WP 09:00:00 NR 17.73 118.69
WP 12:00:00 NR 18.07 118.18
WP 15:00:00 NR 18.40 117.67
WP 16:00:00 NR 18.50 117.50
WP 18:00:00 NR 18.67 117.22
WP 21:00:00 NR 18.90 116.81
WP 1893-09-28 00:00:00 NR 19.09 116.38
WP 03:00:00 NR 19.25 115.88
WP 04:00:00 NR 19.30 115.70
WP 06:00:00 NR 19.40 115.28
WP 09:00:00 NR 19.52 114.57
WP 12:00:00 NR 19.61 113.82
WP 15:00:00 NR 19.68 113.05
WP 16:00:00 NR 19.70 112.80
WP 18:00:00 NR 19.73 112.31
WP 21:00:00 NR 19.76 111.59
WP 1893-09-29 00:00:00 NR 19.78 110.90
WP 03:00:00 NR 19.80 110.23
WP 04:00:00 NR 19.80 110.00

Source Information

Agency Information
USA
TOKYO
CMA
HKO
NEWDELHI
REUNION
BOM
NADI
WELLINGTON
DS824
TD9636 cons_worldwide_trop_cyclone_18710101-19891231-003:Line=1254
TD9635
NEUMANN
MLC

All available IBTrACS Data

SEASON BASIN SUBBASIN ISO_TIME_________ NATURE LAT LON DIST2LAND LANDFALL IFLAG USA SSHS TD9636 LAT TD9636 LON TD9636 STAGE STORM SPEED STORM DIR
Year degrees north degrees east km km 1 degrees north degrees east kts degrees
1893 WP MM 1893-09-24 16:00:00 NR 14.30 127.90 350 342 __________O___ -1 14.30 127.90 3 5 288
1893 WP MM 18:00:00 NR 14.36 127.72 342 319 __________P___ -1 14.36 127.72 3 6 288
1893 WP MM 21:00:00 NR 14.45 127.44 319 298 __________P___ -1 14.45 127.44 3 6 288
1893 WP MM 1893-09-25 00:00:00 NR 14.54 127.12 298 263 __________P___ -1 14.54 127.12 3 7 287
1893 WP MM 03:00:00 NR 14.66 126.74 263 253 __________P___ -1 14.66 126.74 3 8 287
1893 WP MM 04:00:00 NR 14.70 126.60 253 228 __________O___ -1 14.70 126.60 4 9 287
1893 WP MM 06:00:00 NR 14.79 126.28 228 187 __________P___ -1 14.79 126.28 4 10 286
1893 WP MM 09:00:00 NR 14.94 125.76 187 156 __________P___ -1 14.94 125.76 4 11 286
1893 WP MM 12:00:00 NR 15.10 125.20 156 141 __________P___ -1 15.10 125.20 4 11 286
1893 WP MM 15:00:00 NR 15.25 124.67 151 147 __________P___ -1 15.25 124.67 4 11 287
1893 WP MM 16:00:00 NR 15.30 124.50 147 145 __________O___ -1 15.30 124.50 4 9 287
1893 WP MM 18:00:00 NR 15.38 124.21 156 156 __________P___ -1 15.38 124.21 4 8 287
1893 WP MM 21:00:00 NR 15.50 123.81 170 144 __________P___ -1 15.50 123.81 4 8 288
1893 WP MM 1893-09-26 00:00:00 NR 15.62 123.43 144 96 __________P___ -1 15.62 123.43 4 8 289
1893 WP MM 03:00:00 NR 15.75 123.04 96 87 __________P___ -1 15.75 123.04 4 8 289
1893 WP MM 04:00:00 NR 15.80 122.90 87 54 __________O___ -1 15.80 122.90 4 9 290
1893 WP MM 06:00:00 NR 15.91 122.59 54 0 __________P___ -1 15.91 122.59 4 10 290
1893 WP MM 09:00:00 NR 16.08 122.11 0 0 __________P___ -1 16.08 122.11 4 10 291
1893 WP MM 12:00:00 NR 16.26 121.62 0 0 __________P___ -1 16.26 121.62 4 10 292
1893 WP MM 15:00:00 NR 16.44 121.15 0 0 __________P___ -1 16.44 121.15 4 10 292
1893 WP MM 16:00:00 NR 16.50 121.00 0 0 __________O___ -1 16.50 121.00 4 8 292
1893 WP MM 18:00:00 NR 16.60 120.74 0 0 __________P___ -1 16.60 120.74 4 8 293
1893 WP MM 21:00:00 NR 16.75 120.37 0 0 __________P___ -1 16.75 120.37 4 8 295
1893 WP MM 1893-09-27 00:00:00 NR 16.92 120.02 44 44 __________P___ -1 16.92 120.02 4 8 298
1893 WP MM 03:00:00 NR 17.12 119.64 85 84 __________P___ -1 17.12 119.64 4 9 300
1893 WP MM 04:00:00 NR 17.20 119.50 95 95 __________O___ -1 17.20 119.50 4 10 303
1893 WP MM 06:00:00 NR 17.40 119.19 118 118 __________P___ -1 17.40 119.19 4 11 304
1893 WP MM 09:00:00 NR 17.73 118.69 169 169 __________P___ -1 17.73 118.69 4 12 305
1893 WP MM 12:00:00 NR 18.07 118.18 229 229 __________P___ -1 18.07 118.18 4 12 305
1893 WP MM 15:00:00 NR 18.40 117.67 289 299 __________P___ -1 18.40 117.67 4 12 303
1893 WP MM 16:00:00 NR 18.50 117.50 312 312 __________O___ -1 18.50 117.50 4 10 302
1893 WP MM 18:00:00 NR 18.67 117.22 349 349 __________P___ -1 18.67 117.22 4 9 301
1893 WP MM 21:00:00 NR 18.90 116.81 397 397 __________P___ -1 18.90 116.81 4 9 298
1893 WP MM 1893-09-28 00:00:00 NR 19.09 116.38 407 372 __________P___ -1 19.09 116.38 4 9 292
1893 WP MM 03:00:00 NR 19.25 115.88 372 365 __________P___ -1 19.25 115.88 4 10 288
1893 WP MM 04:00:00 NR 19.30 115.70 365 340 __________O___ -1 19.30 115.70 4 12 284
1893 WP MM 06:00:00 NR 19.40 115.28 340 314 __________P___ -1 19.40 115.28 4 13 282
1893 WP MM 09:00:00 NR 19.52 114.57 314 270 __________P___ -1 19.52 114.57 4 14 279
1893 WP MM 12:00:00 NR 19.61 113.82 270 220 __________P___ -1 19.61 113.82 4 14 276
1893 WP MM 15:00:00 NR 19.68 113.05 220 188 __________P___ -1 19.68 113.05 4 14 275
1893 WP MM 16:00:00 NR 19.70 112.80 188 136 __________O___ -1 19.70 112.80 4 14 274
1893 WP MM 18:00:00 NR 19.73 112.31 136 66 __________P___ -1 19.73 112.31 4 14 273
1893 WP MM 21:00:00 NR 19.76 111.59 66 0 __________P___ -1 19.76 111.59 4 13 272
1893 WP MM 1893-09-29 00:00:00 NR 19.78 110.90 0 0 __________P___ -1 19.78 110.90 4 13 271
1893 WP MM 03:00:00 NR 19.80 110.23 0 0 __________P___ -1 19.80 110.23 4 13 271
1893 WP MM 04:00:00 NR 19.80 110.00 0 __________O___ -1 19.80 110.00 4 13 271